createdAt,value
2018-12-03T00:01:33.633Z,14.51
2018-12-03T00:04:16.148Z,14.67
2018-12-03T00:06:51.083Z,14.44
2018-12-03T00:09:25.902Z,14.31
2018-12-03T00:12:00.576Z,14.56
2018-12-03T00:14:35.369Z,14.77
2018-12-03T00:17:10.206Z,14.80
2018-12-03T00:19:45.320Z,14.93
2018-12-03T00:22:20.253Z,14.87
2018-12-03T00:24:55.493Z,14.98
2018-12-03T00:27:30.430Z,15.10
2018-12-03T00:30:08.010Z,14.83
2018-12-03T00:32:42.856Z,14.75
2018-12-03T00:35:17.538Z,14.77
2018-12-03T00:37:52.127Z,14.84
2018-12-03T00:40:26.909Z,14.93
2018-12-03T00:43:01.720Z,14.57
2018-12-03T00:45:36.687Z,14.37
2018-12-03T00:48:11.513Z,14.49
2018-12-03T00:50:46.648Z,14.41
2018-12-03T00:53:21.686Z,14.30
2018-12-03T00:55:56.614Z,14.44
2018-12-03T00:58:31.648Z,14.47
2018-12-03T01:01:06.450Z,14.30
2018-12-03T01:03:41.306Z,14.37
2018-12-03T01:06:16.242Z,14.17
2018-12-03T01:08:51.171Z,13.87
2018-12-03T01:11:25.924Z,14.39
2018-12-03T01:14:00.829Z,14.45
2018-12-03T01:16:35.619Z,14.44
2018-12-03T01:19:10.587Z,14.80
2018-12-03T01:21:45.416Z,14.63
2018-12-03T01:24:20.450Z,14.70
2018-12-03T01:26:55.281Z,14.85
2018-12-03T01:29:30.234Z,14.70
2018-12-03T01:32:05.141Z,14.60
2018-12-03T01:34:39.890Z,14.65
2018-12-03T01:37:14.696Z,14.60
2018-12-03T01:39:49.437Z,14.62
2018-12-03T01:42:24.355Z,14.81
2018-12-03T01:44:59.287Z,14.69
2018-12-03T01:47:34.320Z,14.53
2018-12-03T01:50:11.988Z,14.35
2018-12-03T01:52:46.848Z,14.38
2018-12-03T01:55:21.779Z,14.51
2018-12-03T01:57:56.606Z,14.41
2018-12-03T02:00:31.642Z,14.60
2018-12-03T02:03:06.570Z,14.73
2018-12-03T02:05:41.405Z,14.63
2018-12-03T02:08:16.073Z,14.39
2018-12-03T02:10:51.058Z,14.33
2018-12-03T02:13:26.194Z,14.17
2018-12-03T02:16:01.125Z,14.18
2018-12-03T02:18:35.851Z,14.40
2018-12-03T02:21:10.885Z,13.87
2018-12-03T02:23:45.714Z,14.13
2018-12-03T02:26:20.645Z,14.15
2018-12-03T02:28:55.393Z,14.00
2018-12-03T02:31:30.406Z,14.22
2018-12-03T02:34:05.444Z,14.11
2018-12-03T02:36:40.414Z,14.36
2018-12-03T02:39:15.505Z,14.25
2018-12-03T02:41:50.339Z,14.23
2018-12-03T02:44:25.166Z,14.55
2018-12-03T02:46:59.861Z,14.59
2018-12-03T02:49:34.722Z,14.65
2018-12-03T02:52:09.446Z,14.50
2018-12-03T02:54:44.181Z,14.42
2018-12-03T02:57:18.743Z,14.53
2018-12-03T02:59:53.628Z,14.64
2018-12-03T03:02:28.353Z,14.65
2018-12-03T03:05:03.361Z,14.57
2018-12-03T03:07:38.218Z,14.73
2018-12-03T03:10:15.479Z,14.44
2018-12-03T03:12:50.545Z,14.33
2018-12-03T03:15:25.571Z,14.36
2018-12-03T03:18:00.405Z,14.30
2018-12-03T03:20:35.332Z,14.16
2018-12-03T03:23:10.365Z,14.16
2018-12-03T03:25:45.235Z,13.83
2018-12-03T03:28:20.227Z,13.79
2018-12-03T03:30:55.059Z,13.99
2018-12-03T03:33:29.892Z,13.90
2018-12-03T03:36:04.969Z,14.19
2018-12-03T03:38:40.057Z,14.10
2018-12-03T03:41:14.885Z,14.37
2018-12-03T03:43:49.822Z,14.11
2018-12-03T03:46:24.646Z,14.35
2018-12-03T03:48:59.677Z,14.57
2018-12-03T03:51:34.507Z,14.30
2018-12-03T03:54:09.511Z,14.37
2018-12-03T03:56:44.575Z,14.09
2018-12-03T03:59:19.609Z,13.96
2018-12-03T04:01:54.539Z,14.19
2018-12-03T04:04:29.325Z,14.20
2018-12-03T04:07:04.199Z,14.26
2018-12-03T04:09:39.233Z,14.19
2018-12-03T04:12:14.062Z,14.26
2018-12-03T04:14:48.994Z,14.30
2018-12-03T04:17:23.930Z,14.41
2018-12-03T04:19:58.754Z,14.51
2018-12-03T04:22:33.531Z,14.37
2018-12-03T04:25:09.427Z,14.21
2018-12-03T04:27:44.239Z,14.36
2018-12-03T04:30:20.318Z,14.38
2018-12-03T04:32:55.356Z,14.41
2018-12-03T04:35:29.980Z,14.03
2018-12-03T04:38:05.120Z,14.15
2018-12-03T04:40:39.944Z,14.16
2018-12-03T04:43:14.777Z,14.04
2018-12-03T04:45:49.712Z,14.07
2018-12-03T04:48:24.589Z,14.19
2018-12-03T04:50:59.467Z,14.23
2018-12-03T04:53:34.602Z,14.02
2018-12-03T04:56:09.210Z,14.12
2018-12-03T04:58:44.158Z,14.33
2018-12-03T05:01:18.916Z,14.41
2018-12-03T05:03:53.919Z,14.47
2018-12-03T05:06:28.537Z,14.31
2018-12-03T05:09:03.782Z,14.31
2018-12-03T05:11:38.824Z,14.46
2018-12-03T05:14:13.645Z,14.05
2018-12-03T05:16:48.782Z,13.93
2018-12-03T05:19:23.713Z,13.95
2018-12-03T05:21:58.651Z,13.86
2018-12-03T05:24:33.576Z,13.84
2018-12-03T05:27:08.301Z,13.83
2018-12-03T05:29:43.213Z,14.12
2018-12-03T05:32:18.062Z,14.28
2018-12-03T05:34:52.818Z,14.08
2018-12-03T05:37:27.822Z,14.19
2018-12-03T05:40:02.724Z,14.29
2018-12-03T05:42:37.380Z,14.30
2018-12-03T05:45:12.245Z,14.28
2018-12-03T05:47:47.221Z,14.09
2018-12-03T05:50:22.128Z,13.76
2018-12-03T05:52:56.899Z,13.91
2018-12-03T05:55:31.728Z,14.09
2018-12-03T05:58:06.497Z,14.11
2018-12-03T06:00:41.305Z,14.17
2018-12-03T06:03:16.180Z,13.90
2018-12-03T06:05:50.974Z,13.63
2018-12-03T06:08:25.873Z,13.67
2018-12-03T06:11:00.574Z,13.78
2018-12-03T06:13:35.532Z,14.02
2018-12-03T06:16:10.359Z,13.80
2018-12-03T06:18:45.177Z,13.93
2018-12-03T06:21:19.838Z,14.12
2018-12-03T06:23:54.848Z,14.04
2018-12-03T06:26:29.806Z,13.73
2018-12-03T06:29:04.766Z,13.88
2018-12-03T06:31:39.745Z,13.96
2018-12-03T06:34:14.630Z,13.90
2018-12-03T06:36:49.606Z,13.80
2018-12-03T06:39:24.541Z,13.88
2018-12-03T06:41:59.327Z,14.00
2018-12-03T06:44:35.528Z,13.81
2018-12-03T06:47:11.761Z,13.84
2018-12-03T06:49:46.618Z,13.83
2018-12-03T06:52:21.754Z,14.13
2018-12-03T06:54:56.584Z,14.15
2018-12-03T06:57:31.733Z,14.39
2018-12-03T07:00:15.944Z,14.47
2018-12-03T07:02:50.901Z,14.43
2018-12-03T07:05:26.041Z,14.49
2018-12-03T07:08:01.960Z,14.58
2018-12-03T07:10:36.925Z,14.20
2018-12-03T07:13:17.636Z,13.90
2018-12-03T07:15:55.424Z,13.94
2018-12-03T07:18:30.321Z,13.78
2018-12-03T07:21:05.461Z,13.90
2018-12-03T07:23:40.286Z,14.07
2018-12-03T07:26:15.221Z,14.06
2018-12-03T07:28:50.100Z,13.92
2018-12-03T07:31:25.081Z,13.66
2018-12-03T07:34:03.385Z,13.86
2018-12-03T07:36:34.943Z,13.98
2018-12-03T07:39:09.670Z,13.94
2018-12-03T07:41:44.705Z,13.86
2018-12-03T07:44:19.634Z,13.96
2018-12-03T07:46:54.390Z,13.91
2018-12-03T07:49:29.294Z,13.90
2018-12-03T07:52:04.224Z,13.55
2018-12-03T07:54:39.258Z,13.40
2018-12-03T07:57:13.978Z,13.59
2018-12-03T07:59:48.797Z,13.49
2018-12-03T08:02:23.847Z,13.35
2018-12-03T08:04:58.482Z,13.64
2018-12-03T08:07:33.439Z,13.78
2018-12-03T08:10:14.717Z,13.83
2018-12-03T08:12:50.033Z,13.71
2018-12-03T08:15:24.962Z,13.82
2018-12-03T08:18:02.106Z,13.92
2018-12-03T08:20:54.661Z,13.58
2018-12-03T08:23:32.689Z,13.72
2018-12-03T08:26:09.385Z,13.76
2018-12-03T08:28:44.412Z,13.81
2018-12-03T08:31:19.633Z,13.93
2018-12-03T08:33:54.666Z,13.84
2018-12-03T08:36:29.700Z,13.64
2018-12-03T08:39:04.630Z,13.73
2018-12-03T08:41:39.563Z,13.81
2018-12-03T08:44:14.494Z,13.80
2018-12-03T08:46:49.346Z,13.80
2018-12-03T08:49:24.357Z,13.82
2018-12-03T08:51:59.391Z,14.08
2018-12-03T08:54:34.368Z,13.89
2018-12-03T08:57:09.253Z,14.05
2018-12-03T08:59:43.983Z,13.97
2018-12-03T09:02:18.840Z,13.94
2018-12-03T09:04:53.949Z,13.91
2018-12-03T09:07:28.878Z,14.04
2018-12-03T09:10:03.710Z,13.96
2018-12-03T09:12:38.535Z,13.76
2018-12-03T09:15:13.570Z,13.73
2018-12-03T09:17:48.402Z,14.05
2018-12-03T09:20:23.330Z,14.37
2018-12-03T09:22:58.366Z,14.45
2018-12-03T09:25:33.397Z,14.55
2018-12-03T09:28:08.145Z,14.54
2018-12-03T09:30:43.158Z,14.28
2018-12-03T09:33:17.884Z,14.28
2018-12-03T09:35:52.816Z,13.99
2018-12-03T09:38:27.950Z,14.36
2018-12-03T09:41:05.821Z,14.15
2018-12-03T09:43:37.917Z,14.42
2018-12-03T09:46:12.849Z,14.39
2018-12-03T09:48:47.677Z,14.56
2018-12-03T09:51:22.609Z,14.91
2018-12-03T09:53:57.643Z,15.24
2018-12-03T09:56:41.072Z,15.18
2018-12-03T09:59:17.091Z,14.92
2018-12-03T10:01:54.082Z,14.48
2018-12-03T10:04:32.085Z,14.96
2018-12-03T10:07:06.946Z,15.02
2018-12-03T10:09:41.873Z,15.10
2018-12-03T10:12:18.306Z,15.05
2018-12-03T10:14:51.535Z,15.19
2018-12-03T10:17:26.463Z,15.58
2018-12-03T10:20:01.395Z,15.67
2018-12-03T10:22:36.125Z,15.68
2018-12-03T10:25:13.574Z,15.56
2018-12-03T10:27:48.380Z,15.45
2018-12-03T10:30:23.476Z,15.49
2018-12-03T10:32:58.103Z,15.69
2018-12-03T10:35:35.853Z,15.61
2018-12-03T10:38:14.629Z,15.65
2018-12-03T10:40:58.970Z,15.54
2018-12-03T10:43:33.696Z,15.40
2018-12-03T10:46:09.802Z,15.49
2018-12-03T10:48:44.493Z,15.47
2018-12-03T10:51:19.413Z,15.80
2018-12-03T10:53:54.241Z,15.81
2018-12-03T10:56:29.174Z,15.98
2018-12-03T10:59:06.885Z,16.02
2018-12-03T11:01:47.023Z,15.73
2018-12-03T11:04:27.272Z,15.81
2018-12-03T11:07:02.213Z,15.77
2018-12-03T11:09:37.141Z,15.99
2018-12-03T11:12:12.073Z,16.10
2018-12-03T11:14:47.109Z,16.13
2018-12-03T11:17:22.141Z,16.01
2018-12-03T11:19:57.117Z,15.92
2018-12-03T11:22:32.107Z,16.02
2018-12-03T11:25:10.453Z,16.20
2018-12-03T11:27:47.749Z,16.13
2018-12-03T11:30:22.635Z,16.28
2018-12-03T11:32:57.547Z,16.13
2018-12-03T11:35:32.965Z,16.16
2018-12-03T11:38:12.147Z,16.24
2018-12-03T11:40:54.232Z,15.95
2018-12-03T11:43:30.244Z,15.97
2018-12-03T11:46:05.331Z,15.72
2018-12-03T11:48:40.340Z,15.75
2018-12-03T11:51:15.295Z,15.96
2018-12-03T11:53:49.918Z,15.97
2018-12-03T11:56:25.058Z,15.93
2018-12-03T11:58:59.987Z,15.68
2018-12-03T12:01:34.820Z,15.50
2018-12-03T12:04:09.749Z,15.65
2018-12-03T12:06:44.578Z,15.77
2018-12-03T12:09:21.090Z,15.82
2018-12-03T12:11:54.440Z,15.61
2018-12-03T12:14:29.699Z,15.71
2018-12-03T12:17:04.763Z,15.76
2018-12-03T12:19:39.768Z,16.00
2018-12-03T12:22:14.780Z,15.78
2018-12-03T12:24:49.766Z,15.86
2018-12-03T12:27:24.749Z,15.94
2018-12-03T12:29:59.678Z,15.91
2018-12-03T12:32:34.506Z,15.76
2018-12-03T12:35:10.191Z,15.96
2018-12-03T12:37:44.983Z,16.04
2018-12-03T12:40:19.954Z,15.98
2018-12-03T12:42:54.948Z,15.91
2018-12-03T12:45:34.077Z,15.89
2018-12-03T12:48:08.906Z,15.96
2018-12-03T12:50:43.841Z,16.02
2018-12-03T12:53:18.813Z,16.09
2018-12-03T12:55:53.905Z,16.16
2018-12-03T12:58:28.734Z,15.95
2018-12-03T13:01:03.666Z,16.14
2018-12-03T13:03:38.705Z,16.32
2018-12-03T13:06:13.528Z,16.34
2018-12-03T13:08:48.255Z,16.41
2018-12-03T13:11:23.500Z,16.27
2018-12-03T13:13:58.327Z,16.19
2018-12-03T13:16:33.357Z,16.18
2018-12-03T13:19:09.257Z,16.12
2018-12-03T13:21:44.046Z,16.06
2018-12-03T13:24:18.867Z,15.98
2018-12-03T13:26:53.799Z,16.07
2018-12-03T13:29:28.707Z,15.90
2018-12-03T13:32:03.763Z,15.95
2018-12-03T13:34:38.481Z,16.08
2018-12-03T13:37:13.421Z,15.96
2018-12-03T13:39:48.454Z,16.03
2018-12-03T13:42:23.556Z,16.03
2018-12-03T13:44:58.525Z,15.85
2018-12-03T13:47:33.558Z,15.87
2018-12-03T13:50:10.968Z,15.84
2018-12-03T13:52:46.298Z,15.64
2018-12-03T13:55:21.590Z,15.73
2018-12-03T13:57:56.661Z,15.63
2018-12-03T14:00:31.687Z,15.68
2018-12-03T14:03:20.044Z,15.45
2018-12-03T14:06:35.833Z,15.34
2018-12-03T14:09:18.647Z,15.37
2018-12-03T14:12:00.361Z,15.21
2018-12-03T14:14:46.736Z,15.28
2018-12-03T14:17:34.986Z,15.13
2018-12-03T14:20:10.581Z,14.92
2018-12-03T14:23:23.448Z,14.94
2018-12-03T14:25:57.502Z,14.93
2018-12-03T14:28:31.569Z,14.83
2018-12-03T14:31:05.382Z,14.99
2018-12-03T14:33:39.349Z,14.98
2018-12-03T14:36:13.415Z,14.92
2018-12-03T14:38:47.380Z,15.04
2018-12-03T14:41:21.413Z,14.82
2018-12-03T14:43:55.118Z,14.46
2018-12-03T14:46:29.228Z,14.61
2018-12-03T14:49:02.895Z,14.71
2018-12-03T14:51:37.043Z,14.43
2018-12-03T14:56:55.817Z,14.58
2018-12-03T14:59:29.612Z,14.56
2018-12-03T15:02:03.732Z,14.51
2018-12-03T15:04:37.605Z,14.44
2018-12-03T15:07:11.649Z,14.49
2018-12-03T15:09:45.660Z,14.59
2018-12-03T15:12:19.787Z,14.33
2018-12-03T15:14:53.883Z,14.28
2018-12-03T15:17:27.758Z,14.29
2018-12-03T15:20:01.802Z,14.30
2018-12-03T15:22:35.913Z,14.46
2018-12-03T15:25:09.681Z,14.43
2018-12-03T15:27:43.830Z,14.43
2018-12-03T15:30:17.648Z,14.24
2018-12-03T15:32:51.747Z,14.04
2018-12-03T15:35:25.445Z,14.03
2018-12-03T15:37:59.562Z,14.20
2018-12-03T15:40:33.470Z,14.21
2018-12-03T15:43:07.377Z,14.23
2018-12-03T15:45:41.130Z,14.02
2018-12-03T15:48:15.193Z,14.21
2018-12-03T15:50:48.963Z,14.36
2018-12-03T15:53:23.007Z,14.39
2018-12-03T15:55:56.868Z,14.35
2018-12-03T15:58:30.923Z,14.40
2018-12-03T16:01:04.934Z,14.38
2018-12-03T16:03:38.741Z,11.61
2018-12-03T16:06:12.749Z,14.41
2018-12-03T16:08:46.786Z,14.14
2018-12-03T16:11:20.738Z,14.22
2018-12-03T16:13:54.780Z,14.03
2018-12-03T16:16:28.584Z,13.76
2018-12-03T16:19:02.387Z,13.64
2018-12-03T16:21:36.299Z,13.75
2018-12-03T16:24:10.203Z,13.26
2018-12-03T16:26:43.905Z,13.27
2018-12-03T16:29:18.019Z,13.35
2018-12-03T16:31:51.788Z,13.53
2018-12-03T16:34:25.832Z,13.28
2018-12-03T16:36:59.843Z,13.36
2018-12-03T16:39:33.786Z,13.51
2018-12-03T16:42:07.726Z,13.69
2018-12-03T16:44:41.948Z,13.79
2018-12-03T16:47:15.985Z,13.70
2018-12-03T16:49:49.902Z,13.67
2018-12-03T16:52:23.945Z,13.67
2018-12-03T16:54:57.778Z,13.85
2018-12-03T16:57:31.819Z,13.99
2018-12-03T17:00:08.593Z,13.62
2018-12-03T17:02:42.501Z,13.66
2018-12-03T17:05:16.366Z,13.76
2018-12-03T17:07:50.524Z,13.71
2018-12-03T17:10:24.428Z,13.35
2018-12-03T17:12:59.773Z,13.56
2018-12-03T17:15:33.780Z,13.61
2018-12-03T17:18:07.490Z,13.50
2018-12-03T17:20:41.502Z,13.55
2018-12-03T17:23:15.506Z,13.58
2018-12-03T17:25:49.613Z,13.65
2018-12-03T17:28:23.521Z,13.73
2018-12-03T17:30:57.225Z,13.79
2018-12-03T17:33:31.445Z,13.92
2018-12-03T17:36:05.552Z,13.63
2018-12-03T17:38:39.444Z,13.56
2018-12-03T17:41:13.374Z,13.58
2018-12-03T17:43:47.580Z,13.59
2018-12-03T17:46:21.608Z,13.55
2018-12-03T17:48:55.497Z,13.55
2018-12-03T17:51:29.411Z,13.37
2018-12-03T17:54:03.318Z,13.16
2018-12-03T17:56:37.331Z,13.05
2018-12-03T17:59:11.376Z,13.19
2018-12-03T18:01:45.551Z,12.95
2018-12-03T18:04:19.460Z,13.16
2018-12-03T18:06:53.416Z,13.45
2018-12-03T18:09:27.373Z,13.41
2018-12-03T18:12:01.586Z,13.36
2018-12-03T18:14:35.339Z,13.36
2018-12-03T18:17:09.400Z,13.28
2018-12-03T18:19:43.170Z,13.23
2018-12-03T18:22:17.232Z,13.48
2018-12-03T18:24:51.207Z,13.68
2018-12-03T18:27:25.338Z,13.83
2018-12-03T18:29:59.245Z,13.51
2018-12-03T18:32:33.255Z,13.53
2018-12-03T18:35:07.264Z,13.64
2018-12-03T18:37:41.174Z,13.45
2018-12-03T18:40:15.186Z,13.34
2018-12-03T18:42:49.306Z,13.40
2018-12-03T18:45:23.037Z,13.47
2018-12-03T18:47:57.109Z,13.63
2018-12-03T18:50:30.914Z,13.47
2018-12-03T18:53:05.924Z,13.61
2018-12-03T18:55:39.760Z,13.52
2018-12-03T18:58:13.974Z,13.77
2018-12-03T19:00:47.776Z,13.57
2018-12-03T19:03:21.579Z,13.46
2018-12-03T19:05:55.551Z,13.36
2018-12-03T19:08:29.603Z,13.39
2018-12-03T19:11:03.506Z,13.61
2018-12-03T19:13:37.341Z,13.65
2018-12-03T19:16:11.228Z,13.80
2018-12-03T19:18:45.227Z,13.93
2018-12-03T19:21:19.136Z,13.95
2018-12-03T19:23:53.156Z,14.00
2018-12-03T19:26:27.050Z,13.97
2018-12-03T19:29:01.164Z,14.06
2018-12-03T19:31:35.072Z,14.02
2018-12-03T19:34:08.875Z,13.98
2018-12-03T19:36:42.886Z,13.89
2018-12-03T19:39:16.793Z,13.97
2018-12-03T19:41:50.796Z,13.98
2018-12-03T19:44:24.817Z,13.87
2018-12-03T19:46:58.823Z,13.83
2018-12-03T19:49:33.139Z,13.85
2018-12-03T19:52:07.047Z,13.84
2018-12-03T19:54:40.852Z,13.85
2018-12-03T19:57:14.865Z,13.89
2018-12-03T19:59:48.905Z,13.92
2018-12-03T20:02:22.733Z,13.96
2018-12-03T20:04:58.811Z,13.68
2018-12-03T20:07:32.749Z,13.71
2018-12-03T20:10:07.273Z,13.81
2018-12-03T20:12:41.274Z,13.86
2018-12-03T20:15:15.149Z,13.75
2018-12-03T20:17:49.398Z,13.82
2018-12-03T20:20:23.928Z,13.62
2018-12-03T20:22:57.838Z,13.63
2018-12-03T20:25:31.940Z,13.55
2018-12-03T20:28:07.526Z,13.70
2018-12-03T20:30:42.639Z,13.78
2018-12-03T20:33:18.100Z,13.78
2018-12-03T20:35:52.121Z,13.61
2018-12-03T20:38:26.391Z,13.85
2018-12-03T20:41:00.400Z,13.75
2018-12-03T20:43:34.625Z,13.79
2018-12-03T20:46:08.639Z,13.75
2018-12-03T20:48:42.839Z,13.45
2018-12-03T20:51:16.954Z,13.46
2018-12-03T20:53:51.065Z,13.40
2018-12-03T20:56:24.974Z,13.24
2018-12-03T20:58:58.878Z,13.51
2018-12-03T21:01:32.888Z,13.36
2018-12-03T21:04:07.000Z,13.52
2018-12-03T21:06:41.117Z,13.58
2018-12-03T21:09:15.737Z,13.55
2018-12-03T21:11:49.955Z,13.35
2018-12-03T21:14:23.851Z,13.31
2018-12-03T21:16:57.885Z,13.42
2018-12-03T21:19:31.927Z,13.31
2018-12-03T21:22:05.889Z,13.24
2018-12-03T21:24:39.798Z,13.20
2018-12-03T21:27:13.909Z,13.35
2018-12-03T21:29:47.816Z,13.32
2018-12-03T21:32:21.567Z,13.19
2018-12-03T21:34:55.733Z,13.24
2018-12-03T21:37:29.743Z,13.25
2018-12-03T21:40:04.178Z,13.09
2018-12-03T21:42:38.092Z,13.13
2018-12-03T21:45:12.170Z,13.26
2018-12-03T21:47:46.094Z,13.31
2018-12-03T21:50:20.109Z,13.23
2018-12-03T21:52:54.213Z,13.26
2018-12-03T21:55:27.946Z,13.42
2018-12-03T21:58:01.869Z,13.12
2018-12-03T22:00:35.795Z,12.99
2018-12-03T22:03:10.968Z,12.90
2018-12-03T22:05:44.773Z,13.08
2018-12-03T22:08:18.886Z,13.30
2018-12-03T22:10:52.796Z,13.24
2018-12-03T22:13:26.699Z,13.19
2018-12-03T22:16:00.613Z,13.23
2018-12-03T22:18:34.421Z,13.44
2018-12-03T22:21:08.287Z,12.96
2018-12-03T22:23:42.637Z,13.16
2018-12-03T22:26:16.646Z,13.33
2018-12-03T22:28:50.660Z,13.30
2018-12-03T22:31:24.666Z,13.51
2018-12-03T22:33:58.675Z,13.36
2018-12-03T22:36:32.585Z,13.40
2018-12-03T22:39:06.800Z,13.17
2018-12-03T22:41:40.629Z,13.20
2018-12-03T22:44:14.305Z,13.14
2018-12-03T22:46:48.420Z,13.03
2018-12-03T22:49:22.309Z,13.20
2018-12-03T22:51:56.299Z,13.20
2018-12-03T22:54:30.447Z,13.47
2018-12-03T22:57:04.559Z,13.34
2018-12-03T22:59:38.521Z,13.48
2018-12-03T23:02:12.680Z,13.36
2018-12-03T23:04:46.691Z,12.78
2018-12-03T23:07:20.597Z,12.94
2018-12-03T23:09:54.712Z,13.00
2018-12-03T23:12:28.410Z,13.18
2018-12-03T23:15:02.301Z,13.12
2018-12-03T23:17:36.157Z,12.94
2018-12-03T23:20:09.836Z,12.98
2018-12-03T23:22:43.442Z,12.91
2018-12-03T23:25:17.437Z,12.96
2018-12-03T23:27:51.217Z,13.26
2018-12-03T23:30:25.457Z,13.27
2018-12-03T23:32:59.255Z,13.07
2018-12-03T23:35:33.374Z,12.98
2018-12-03T23:38:07.028Z,13.04
2018-12-03T23:40:40.834Z,13.38
2018-12-03T23:43:14.689Z,13.23
2018-12-03T23:45:48.799Z,13.44
2018-12-03T23:48:22.665Z,12.76
2018-12-03T23:50:56.818Z,12.83
2018-12-03T23:53:30.480Z,13.07
2018-12-03T23:56:04.530Z,13.02
2018-12-03T23:58:38.438Z,13.11
